Cherry Grove, Ohio
Current Conditions -  °F | °C
As of 4:53 PM on Tuesday 25 Nov 2014 (Local Time) from KLUK Reporting Station
Few Clouds Few Clouds  
Wind Chill: 36°   Ceiling: Unl
Heat Index: 41°   Visibility: 10mi
Dew Point: 28°   Wind: 7mph
Humidity: 60%   Direction: 250°WSW
Pressure: 30.14"   Gusts: NA
Location:  39.0659°N, 84.278°W
Report Text: KLUK 252153Z 25006KT 10SM FEW039 05/M02 A3014 RMK AO2 SLP211 T00501022
Loading
Personal Weather Stations






























Interactive Weather Map New forecast layout! Learn more

10-Day Weather Forecast

Advertisements
Track Severe Weather on mobile